Time;durP1;ratioP1;P1;durP2;ratioP2;P2;SDS_P1;SDS_P2;PMS_P1;PMS_P2;Temp;Humidity;BMP_temperature;BMP_pressure;BME280_temperature;BME280_humidity;BME280_pressure;Samples;Min_cycle;Max_cycle;Signal;HPM_P1;HPM_P2
2024/04/15 00:00:10;;;;;;;14.52;8.70;;;20.40;57.80;;;;;;5416316;26;20309;-73
2024/04/15 00:02:36;;;;;;;13.35;8.75;;;20.40;58.00;;;;;;5416619;26;19996;-73
2024/04/15 00:05:02;;;;;;;15.65;8.60;;;20.40;58.10;;;;;;5416872;26;20459;-72
2024/04/15 00:07:28;;;;;;;17.98;8.57;;;20.40;58.10;;;;;;5416409;26;20011;-73
2024/04/15 00:09:54;;;;;;;14.25;7.78;;;20.30;58.30;;;;;;5416851;26;19995;-73
2024/04/15 00:12:19;;;;;;;13.77;7.82;;;20.30;58.40;;;;;;5416316;26;20028;-73
2024/04/15 00:14:45;;;;;;;15.85;7.78;;;20.20;58.20;;;;;;5416545;26;19999;-74
2024/04/15 00:17:11;;;;;;;18.95;8.40;;;20.20;58.40;;;;;;5417032;26;20073;-73
2024/04/15 00:19:38;;;;;;;13.60;7.75;;;20.20;58.50;;;;;;5414515;26;20447;-73
2024/04/15 00:22:03;;;;;;;11.98;7.95;;;20.20;58.30;;;;;;5416029;26;20000;-73
2024/04/15 00:24:29;;;;;;;12.32;7.80;;;20.20;58.50;;;;;;5415845;26;20100;-73
2024/04/15 00:26:55;;;;;;;11.73;7.57;;;20.20;58.40;;;;;;5416296;26;20003;-72
2024/04/15 00:29:22;;;;;;;14.30;7.43;;;20.10;58.30;;;;;;5416344;26;20508;-73
2024/04/15 00:31:47;;;;;;;14.50;8.20;;;20.10;58.40;;;;;;5415591;26;20076;-72
2024/04/15 00:34:14;;;;;;;13.48;7.60;;;20.00;59.00;;;;;;5415376;26;20011;-72
2024/04/15 00:36:42;;;;;;;15.65;7.93;;;20.00;58.50;;;;;;5415814;26;20006;-74
2024/04/15 00:39:08;;;;;;;12.65;7.97;;;20.00;58.50;;;;;;5415775;26;20074;-73
2024/04/15 00:41:34;;;;;;;14.95;7.90;;;19.90;58.50;;;;;;5415788;26;20009;-73
2024/04/15 00:44:00;;;;;;;21.48;8.38;;;19.90;58.40;;;;;;5414158;26;20405;-73
2024/04/15 00:46:26;;;;;;;14.55;8.38;;;19.90;58.50;;;;;;5412365;26;20003;-73
2024/04/15 00:48:53;;;;;;;14.27;8.85;;;19.90;58.60;;;;;;5384964;26;20074;-73
2024/04/15 00:51:21;;;;;;;12.65;8.02;;;19.90;58.80;;;;;;5379885;26;20028;-73
2024/04/15 00:53:49;;;;;;;15.95;8.30;;;19.90;58.70;;;;;;5379472;26;20007;-73
2024/04/15 00:56:16;;;;;;;14.93;8.68;;;19.90;58.90;;;;;;5380246;26;19996;-73
2024/04/15 00:58:43;;;;;;;12.85;8.38;;;19.80;59.00;;;;;;5380310;26;20079;-73
2024/04/15 01:01:09;;;;;;;12.30;9.18;;;19.80;59.20;;;;;;5380171;26;19992;-74
2024/04/15 01:03:35;;;;;;;17.85;9.48;;;19.70;59.60;;;;;;5380409;26;20000;-74
2024/04/15 01:06:01;;;;;;;15.20;8.70;;;19.60;59.80;;;;;;5379763;26;20008;-73
2024/04/15 01:08:27;;;;;;;16.13;9.43;;;19.60;60.00;;;;;;5379707;26;19996;-73
2024/04/15 01:10:53;;;;;;;13.35;8.75;;;19.60;60.20;;;;;;5399009;26;20035;-73
2024/04/15 01:13:19;;;;;;;15.10;8.50;;;19.50;60.70;;;;;;5415709;26;20415;-73
2024/04/15 01:15:45;;;;;;;13.70;8.52;;;19.50;60.60;;;;;;5415609;26;20065;-73
2024/04/15 01:18:10;;;;;;;12.52;7.93;;;19.50;60.80;;;;;;5415581;26;20519;-73
2024/04/15 01:20:36;;;;;;;14.35;8.23;;;19.50;61.30;;;;;;5415203;26;20003;-73
2024/04/15 01:23:10;;;;;;;12.75;7.55;;;19.50;61.60;;;;;;5415664;26;20075;-72
2024/04/15 01:25:36;;;;;;;16.52;8.75;;;19.50;61.90;;;;;;5415366;26;20000;-73
2024/04/15 01:28:03;;;;;;;14.48;7.82;;;19.40;61.80;;;;;;5415192;26;20068;-73
2024/04/15 01:30:28;;;;;;;12.52;7.93;;;19.40;62.00;;;;;;5415231;26;20004;-73
2024/04/15 01:32:55;;;;;;;13.05;8.30;;;19.40;62.90;;;;;;5414959;26;19995;-73
2024/04/15 01:35:20;;;;;;;14.90;8.52;;;19.40;61.80;;;;;;5415076;26;20000;-73
2024/04/15 01:37:48;;;;;;;15.48;8.75;;;19.40;61.80;;;;;;5415143;26;20343;-73
2024/04/15 01:40:14;;;;;;;13.18;8.10;;;19.30;62.00;;;;;;5415312;26;20068;-73
2024/04/15 01:42:40;;;;;;;13.70;7.82;;;19.20;61.50;;;;;;5414749;26;20008;-72
2024/04/15 01:45:06;;;;;;;15.35;7.75;;;19.20;61.30;;;;;;5414351;26;20000;-72
2024/04/15 01:47:34;;;;;;;12.98;7.85;;;19.30;60.80;;;;;;5415424;26;20001;-73
2024/04/15 01:50:00;;;;;;;15.25;7.78;;;19.20;60.10;;;;;;5415225;26;20283;-74
2024/04/15 13:48:53;;;;;;;9.85;4.47;;;26.40;45.10;;;;;;5408447;26;20007;-77
2024/04/15 13:51:19;;;;;;;9.18;4.38;;;26.30;47.30;;;;;;5414716;26;19995;-72
2024/04/15 13:53:47;;;;;;;13.50;4.43;;;26.30;47.40;;;;;;5415338;26;19995;-72
2024/04/15 13:56:13;;;;;;;14.32;4.50;;;26.30;48.20;;;;;;5415351;26;20015;-73
2024/04/15 13:58:39;;;;;;;9.18;4.25;;;26.30;47.60;;;;;;5403903;26;20020;-77
2024/04/15 14:01:05;;;;;;;9.43;4.32;;;26.40;47.60;;;;;;5386073;26;19995;-75
2024/04/15 14:03:30;;;;;;;8.85;4.43;;;26.50;47.10;;;;;;5420487;26;20325;-75
2024/04/15 14:05:56;;;;;;;8.07;4.22;;;26.60;47.00;;;;;;5395841;26;20005;-74
2024/04/15 14:08:22;;;;;;;9.95;4.38;;;26.60;47.00;;;;;;5417840;26;19995;-75
2024/04/15 14:10:48;;;;;;;12.30;4.90;;;26.80;47.00;;;;;;5413103;26;20003;-73
2024/04/15 14:13:14;;;;;;;12.50;4.38;;;26.90;46.90;;;;;;5417379;26;20011;-74
2024/04/15 14:15:40;;;;;;;12.43;4.72;;;26.90;46.80;;;;;;5384061;26;20004;-72
2024/04/15 14:18:05;;;;;;;13.77;4.40;;;26.90;46.70;;;;;;5382665;26;19992;-76
2024/04/15 14:20:31;;;;;;;10.77;4.15;;;26.90;47.20;;;;;;5382527;26;20011;-74
2024/04/15 14:23:00;;;;;;;9.15;4.05;;;26.90;47.40;;;;;;5383017;26;20455;-75
2024/04/15 14:25:25;;;;;;;12.68;4.80;;;26.90;47.50;;;;;;5383390;26;20132;-75
2024/04/15 14:27:51;;;;;;;11.07;4.38;;;26.90;47.90;;;;;;5382814;26;20277;-74
2024/04/15 14:30:17;;;;;;;11.00;4.32;;;26.80;47.60;;;;;;5352427;26;20053;-74
2024/04/15 14:32:43;;;;;;;13.60;4.57;;;26.80;47.90;;;;;;5401465;26;20003;-73
2024/04/15 14:35:09;;;;;;;11.50;4.00;;;26.80;47.90;;;;;;5391555;26;19999;-76
2024/04/15 14:37:38;;;;;;;11.82;4.00;;;26.70;48.20;;;;;;5396194;26;19993;-76
2024/04/15 14:40:06;;;;;;;12.93;4.28;;;26.60;47.80;;;;;;5405199;26;20347;-74
2024/04/15 14:42:32;;;;;;;8.13;4.05;;;26.60;47.90;;;;;;5369983;26;20106;-77
2024/04/15 14:44:58;;;;;;;7.72;4.50;;;26.50;48.50;;;;;;5420510;26;19999;-74
2024/04/15 14:47:24;;;;;;;7.90;4.28;;;26.40;48.30;;;;;;5407122;26;20277;-75
2024/04/15 14:49:50;;;;;;;9.43;4.40;;;26.30;48.50;;;;;;5383017;26;20062;-75
2024/04/15 14:52:18;;;;;;;10.60;3.78;;;26.30;48.50;;;;;;5381452;26;20423;-75
2024/04/15 14:54:44;;;;;;;9.55;4.15;;;26.30;48.60;;;;;;5390319;26;19997;-75
2024/04/15 14:57:13;;;;;;;10.77;3.97;;;26.30;47.40;;;;;;5405412;26;20003;-76
2024/04/15 14:59:44;;;;;;;9.43;3.42;;;26.20;46.60;;;;;;5379669;26;20411;-77
2024/04/15 15:02:11;;;;;;;9.23;3.90;;;26.10;45.90;;;;;;5418134;26;19992;-77
2024/04/15 15:04:37;;;;;;;10.50;3.70;;;26.10;46.00;;;;;;5389829;26;19996;-76
2024/04/15 15:07:03;;;;;;;9.27;3.67;;;26.10;46.10;;;;;;5385203;26;19999;-74
2024/04/15 15:09:29;;;;;;;11.45;3.90;;;26.10;45.90;;;;;;5413860;26;20002;-76
2024/04/15 15:11:55;;;;;;;9.98;4.07;;;26.10;45.50;;;;;;5397640;26;20003;-75
2024/04/15 15:14:21;;;;;;;8.82;4.38;;;26.10;45.40;;;;;;5403122;26;20338;-77
2024/04/15 15:16:47;;;;;;;9.82;4.05;;;26.20;45.10;;;;;;5410616;26;20012;-75
2024/04/15 15:19:13;;;;;;;7.10;4.10;;;26.20;45.20;;;;;;5392413;26;20003;-75
2024/04/15 15:21:39;;;;;;;11.07;4.47;;;26.30;45.30;;;;;;5417707;26;20014;-76
2024/04/15 15:24:06;;;;;;;9.20;3.58;;;26.40;45.50;;;;;;5412212;26;20003;-75
2024/04/15 15:26:32;;;;;;;9.93;3.30;;;26.30;44.80;;;;;;5394496;26;20007;-75
2024/04/15 15:28:58;;;;;;;7.20;3.20;;;26.30;44.20;;;;;;5405821;26;20497;-75
2024/04/15 15:31:24;;;;;;;11.30;3.83;;;26.20;44.60;;;;;;5419288;26;20000;-75
2024/04/15 15:33:49;;;;;;;7.10;3.63;;;26.20;44.30;;;;;;5452700;26;20009;-76
2024/04/15 15:36:15;;;;;;;7.53;3.38;;;26.20;44.30;;;;;;5452291;26;20120;-74
2024/04/15 15:38:42;;;;;;;8.48;3.90;;;26.10;44.00;;;;;;5416090;26;20010;-77
2024/04/15 15:41:08;;;;;;;6.35;3.33;;;26.10;44.00;;;;;;5404606;26;19999;-77
2024/04/15 15:43:34;;;;;;;10.90;4.03;;;26.10;43.90;;;;;;5402960;26;19996;-77
2024/04/15 15:45:59;;;;;;;10.25;3.47;;;26.00;43.40;;;;;;5396428;26;20035;-75
2024/04/15 15:48:25;;;;;;;7.57;3.53;;;26.00;43.20;;;;;;5409563;26;20459;-75
2024/04/15 15:50:51;;;;;;;83.75;8.52;;;25.90;43.20;;;;;;5417599;26;20007;-75
2024/04/15 15:53:17;;;;;;;10.68;3.80;;;25.90;42.80;;;;;;5416315;26;20059;-79
2024/04/15 15:55:42;;;;;;;14.23;4.15;;;25.80;42.30;;;;;;5425577;26;20003;-76
2024/04/15 15:58:08;;;;;;;9.85;4.20;;;25.70;42.00;;;;;;5415235;26;20003;-76
2024/04/15 16:00:35;;;;;;;12.85;4.05;;;25.70;42.10;;;;;;5418033;26;20064;-76
2024/04/15 16:03:01;;;;;;;11.73;3.83;;;25.70;42.00;;;;;;5417271;26;20009;-75
2024/04/15 16:05:27;;;;;;;7.15;3.50;;;25.60;42.40;;;;;;5415460;26;19995;-76
2024/04/15 16:07:57;;;;;;;8.73;3.78;;;25.60;42.70;;;;;;5394292;26;19999;-75
2024/04/15 16:10:23;;;;;;;7.20;3.80;;;25.60;42.10;;;;;;5416267;26;19995;-76
2024/04/15 16:12:49;;;;;;;11.50;4.28;;;25.50;43.20;;;;;;5400989;26;19999;-77
2024/04/15 16:15:15;;;;;;;13.15;4.18;;;25.50;44.00;;;;;;5414776;26;20509;-74
2024/04/15 16:17:41;;;;;;;9.68;4.28;;;25.40;44.30;;;;;;5417005;26;20081;-77
2024/04/15 16:20:10;;;;;;;11.55;3.92;;;25.50;44.80;;;;;;5416247;26;19992;-77
2024/04/15 16:22:36;;;;;;;14.35;4.22;;;25.40;45.10;;;;;;5416904;26;19995;-78
2024/04/15 16:25:02;;;;;;;11.82;4.68;;;25.40;45.70;;;;;;5415141;26;20068;-78
2024/04/15 16:27:28;;;;;;;10.13;4.45;;;25.40;45.80;;;;;;5407093;26;20007;-77
2024/04/15 16:29:53;;;;;;;12.00;5.00;;;25.40;46.40;;;;;;5407795;26;19999;-75
2024/04/15 16:32:19;;;;;;;11.38;4.60;;;25.30;46.70;;;;;;5429502;26;19994;-77
2024/04/15 16:34:45;;;;;;;12.68;4.20;;;25.30;47.30;;;;;;5421717;26;20357;-77
2024/04/15 16:37:11;;;;;;;13.13;6.20;;;25.30;47.50;;;;;;5375092;26;20077;-78
2024/04/15 16:39:36;;;;;;;10.10;4.75;;;25.30;48.10;;;;;;5388816;26;19993;-79
2024/04/15 16:42:02;;;;;;;11.90;5.07;;;25.30;48.50;;;;;;5380386;26;20061;-76
2024/04/15 16:44:28;;;;;;;11.77;4.88;;;25.20;48.70;;;;;;5380609;26;20029;-78
2024/04/15 16:46:54;;;;;;;10.18;4.57;;;25.20;49.00;;;;;;5380991;26;19996;-77
2024/04/15 16:49:19;;;;;;;10.75;4.72;;;25.10;49.50;;;;;;5380141;26;20000;-78
2024/04/15 16:51:45;;;;;;;9.80;4.47;;;25.10;50.00;;;;;;5406516;21;20137;-78
2024/04/15 16:54:10;;;;;;;9.60;4.57;;;25.00;50.20;;;;;;5450882;26;20009;-77
2024/04/15 16:56:39;;;;;;;10.63;5.03;;;25.00;50.50;;;;;;5451448;26;20442;-79
2024/04/15 16:59:05;;;;;;;10.40;4.93;;;24.90;51.00;;;;;;5451380;26;19998;-78
2024/04/15 17:01:31;;;;;;;11.93;5.20;;;24.90;51.40;;;;;;5451410;26;19990;-77
2024/04/15 17:03:56;;;;;;;12.27;5.50;;;24.80;52.00;;;;;;5450459;26;20009;-79
2024/04/15 17:06:22;;;;;;;14.75;6.07;;;24.80;51.80;;;;;;5450679;26;20071;-78
2024/04/15 17:08:48;;;;;;;10.40;5.28;;;24.70;51.80;;;;;;5451184;26;19994;-78
2024/04/15 17:11:13;;;;;;;12.02;5.80;;;24.70;51.50;;;;;;5451127;26;19990;-77
2024/04/15 17:13:40;;;;;;;20.35;5.97;;;24.60;50.50;;;;;;5450714;26;20079;-77
2024/04/15 17:16:07;;;;;;;10.95;5.53;;;24.50;50.50;;;;;;5445206;26;20010;-78
2024/04/15 17:18:33;;;;;;;12.95;5.57;;;24.50;50.10;;;;;;5413319;26;19988;-78
2024/04/15 17:20:59;;;;;;;13.48;5.40;;;24.40;49.70;;;;;;5415273;26;20090;-78
2024/04/15 17:23:24;;;;;;;10.70;5.68;;;24.30;49.60;;;;;;5413899;26;19995;-78
2024/04/15 17:25:50;;;;;;;11.18;5.32;;;24.30;49.20;;;;;;5426384;26;20330;-79
2024/04/15 17:28:17;;;;;;;12.77;6.25;;;24.20;48.80;;;;;;5449738;26;20007;-79
2024/04/15 17:30:42;;;;;;;13.65;5.90;;;24.20;49.20;;;;;;5416088;26;20107;-81
2024/04/15 17:33:08;;;;;;;12.15;5.60;;;24.10;48.70;;;;;;5450358;26;20003;-78
2024/04/15 17:35:34;;;;;;;14.25;5.72;;;24.10;48.70;;;;;;5448852;26;20006;-80
2024/04/15 17:38:00;;;;;;;11.68;4.93;;;24.00;48.60;;;;;;5449850;26;20363;-77
2024/04/15 17:40:25;;;;;;;15.70;4.80;;;23.90;48.60;;;;;;5450024;26;20001;-78
2024/04/15 17:42:54;;;;;;;12.25;5.05;;;23.80;48.50;;;;;;5450610;26;20339;-79
2024/04/15 17:45:20;;;;;;;13.63;4.72;;;23.70;49.60;;;;;;5449119;26;19999;-82
2024/04/15 17:47:46;;;;;;;15.68;5.93;;;23.60;49.10;;;;;;5450691;26;20003;-79
2024/04/15 17:50:12;;;;;;;12.57;5.82;;;23.60;49.30;;;;;;5450370;26;20001;-80
2024/04/15 17:52:38;;;;;;;15.65;6.07;;;23.50;49.40;;;;;;5448594;26;20327;-79
2024/04/15 17:55:04;;;;;;;12.90;6.10;;;23.40;49.50;;;;;;5450699;26;19991;-80
2024/04/15 17:57:32;;;;;;;15.50;6.20;;;23.40;49.80;;;;;;5450801;26;19991;-78
2024/04/15 17:59:58;;;;;;;13.65;5.68;;;23.40;50.10;;;;;;5451342;26;20007;-79
2024/04/15 18:02:24;;;;;;;11.27;5.38;;;23.30;50.60;;;;;;5450082;26;20438;-80
2024/04/15 18:04:50;;;;;;;15.32;5.85;;;23.20;50.90;;;;;;5416493;26;20307;-80
2024/04/15 18:07:15;;;;;;;13.77;5.65;;;23.20;51.20;;;;;;5451360;26;20014;-81
2024/04/15 18:09:41;;;;;;;13.75;4.72;;;23.10;51.50;;;;;;5450739;26;19995;-81
2024/04/15 18:12:07;;;;;;;15.73;5.68;;;23.10;51.80;;;;;;5420273;26;19995;-81
2024/04/15 18:14:32;;;;;;;14.73;5.80;;;23.00;52.20;;;;;;5451162;26;20007;-78
2024/04/15 18:16:58;;;;;;;17.05;6.10;;;22.90;52.50;;;;;;5450750;26;19991;-80
2024/04/15 18:19:24;;;;;;;12.25;6.50;;;22.90;52.90;;;;;;5450390;26;19998;-79
2024/04/15 18:21:52;;;;;;;12.23;5.97;;;22.90;53.00;;;;;;5450763;26;19995;-79
2024/04/15 18:24:17;;;;;;;13.20;5.97;;;22.80;53.60;;;;;;5450996;26;20009;-82
2024/04/15 18:26:43;;;;;;;14.18;6.43;;;22.80;53.80;;;;;;5443202;26;20303;-84
2024/04/15 18:29:09;;;;;;;16.38;7.88;;;22.70;54.30;;;;;;5448356;26;20339;-86
2024/04/15 18:31:35;;;;;;;12.50;7.03;;;22.70;54.60;;;;;;5450678;26;20002;-84
2024/04/15 18:34:01;;;;;;;17.50;7.35;;;22.60;54.80;;;;;;5448700;26;19995;-84
2024/04/15 18:36:29;;;;;;;11.77;7.30;;;22.60;55.10;;;;;;5449247;26;20001;-86
2024/04/15 18:38:55;;;;;;;23.52;8.75;;;22.60;55.20;;;;;;5449772;26;20034;-84
2024/04/15 18:41:20;;;;;;;15.85;7.57;;;22.60;55.60;;;;;;5449780;26;20412;-84
2024/04/15 18:43:47;;;;;;;17.75;8.27;;;22.50;55.70;;;;;;5449537;26;20314;-81
2024/04/15 18:46:13;;;;;;;16.83;8.07;;;22.50;56.00;;;;;;5450074;26;20072;-82
2024/04/15 18:48:39;;;;;;;17.98;8.90;;;22.50;56.10;;;;;;5452206;26;20002;-83
2024/04/15 18:51:04;;;;;;;15.75;7.53;;;22.50;56.20;;;;;;5452930;26;19994;-82
2024/04/15 18:53:30;;;;;;;16.98;7.13;;;22.40;56.30;;;;;;5453415;26;19991;-80
2024/04/15 18:55:56;;;;;;;13.75;7.68;;;22.40;56.50;;;;;;5453618;26;19991;-81
2024/04/15 18:58:21;;;;;;;16.67;7.53;;;22.30;56.70;;;;;;5453405;26;20006;-84
2024/04/15 19:00:47;;;;;;;17.63;6.75;;;22.30;56.90;;;;;;5452533;26;19991;-82
2024/04/15 19:03:13;;;;;;;14.20;7.55;;;22.20;56.80;;;;;;5421451;26;20442;-84
2024/04/15 19:05:40;;;;;;;16.40;7.78;;;22.20;57.00;;;;;;5450242;26;20121;-80
2024/04/15 19:08:06;;;;;;;18.98;8.15;;;22.10;57.40;;;;;;5436606;26;20007;-80
2024/04/15 19:10:32;;;;;;;18.20;8.05;;;22.10;57.30;;;;;;5439774;26;19991;-80
2024/04/15 19:12:58;;;;;;;15.00;9.15;;;22.10;57.60;;;;;;5433739;26;20522;-82
2024/04/15 19:15:23;;;;;;;13.38;7.80;;;22.00;57.60;;;;;;5450728;26;20326;-81
2024/04/15 19:17:50;;;;;;;19.27;8.40;;;21.90;57.60;;;;;;5453178;26;20006;-81
2024/04/15 19:20:15;;;;;;;19.48;9.02;;;21.90;57.80;;;;;;5452964;26;20338;-80
2024/04/15 19:22:41;;;;;;;15.35;7.68;;;21.90;58.00;;;;;;5452712;26;20006;-80
2024/04/15 19:25:07;;;;;;;17.63;8.45;;;21.80;57.90;;;;;;5449803;26;20422;-82
2024/04/15 19:27:35;;;;;;;18.17;8.63;;;21.80;57.90;;;;;;5437769;26;19995;-82
2024/04/15 19:30:01;;;;;;;18.80;8.30;;;21.80;58.20;;;;;;5443201;26;19998;-81
2024/04/15 19:32:27;;;;;;;17.58;8.02;;;21.80;58.20;;;;;;5447215;26;19991;-80
2024/04/15 19:34:53;;;;;;;17.17;8.27;;;21.80;58.30;;;;;;5456255;26;20006;-82
2024/04/15 19:37:19;;;;;;;19.17;8.20;;;21.80;58.30;;;;;;5453729;26;20448;-81
2024/04/15 19:39:44;;;;;;;19.33;9.25;;;21.80;58.30;;;;;;5453343;26;20454;-79
2024/04/15 19:42:10;;;;;;;15.75;8.20;;;21.80;58.30;;;;;;5420959;26;19991;-82
2024/04/15 19:44:36;;;;;;;18.35;7.75;;;21.80;58.40;;;;;;5451224;26;20009;-81
2024/04/15 19:47:02;;;;;;;15.85;8.95;;;21.80;58.10;;;;;;5451984;26;20403;-81
2024/04/15 19:49:27;;;;;;;16.33;9.18;;;21.80;58.30;;;;;;5452122;26;20363;-74
2024/04/15 19:51:53;;;;;;;18.75;9.90;;;21.80;58.20;;;;;;5447292;26;19991;-76
2024/04/15 19:54:19;;;;;;;19.10;9.30;;;21.80;58.20;;;;;;5432483;26;19987;-78
2024/04/15 19:56:47;;;;;;;20.23;9.93;;;21.80;58.30;;;;;;5423179;26;19990;-78
2024/04/15 19:59:15;;;;;;;17.08;10.02;;;21.80;58.30;;;;;;5451390;26;20002;-79
2024/04/15 20:01:41;;;;;;;17.98;8.35;;;21.80;58.30;;;;;;5414665;26;20023;-79
2024/04/15 20:04:07;;;;;;;20.88;7.65;;;21.80;58.30;;;;;;5447550;26;20091;-78
2024/04/15 20:06:33;;;;;;;12.88;7.53;;;21.80;58.30;;;;;;5451722;26;19995;-78
2024/04/15 20:08:59;;;;;;;24.50;7.80;;;21.70;58.10;;;;;;5450313;26;19999;-79
2024/04/15 20:11:26;;;;;;;22.30;9.18;;;21.70;58.30;;;;;;5388629;26;20009;-78
2024/04/15 20:13:53;;;;;;;21.40;8.88;;;21.70;58.30;;;;;;5416325;26;19996;-78
2024/04/15 20:16:18;;;;;;;17.90;8.32;;;21.60;58.60;;;;;;5416290;26;20060;-79
2024/04/15 20:19:01;;;;;;;18.25;8.90;;;21.60;58.30;;;;;;5415958;26;20331;-80
2024/04/15 20:21:27;;;;;;;14.45;8.40;;;21.60;58.30;;;;;;5416112;26;20011;-79
2024/04/15 20:23:52;;;;;;;17.35;9.57;;;21.50;58.20;;;;;;5416568;26;20443;-78
2024/04/15 20:26:18;;;;;;;17.02;9.55;;;21.50;58.30;;;;;;5439977;26;20006;-78
2024/04/15 20:28:44;;;;;;;18.83;9.43;;;21.50;58.30;;;;;;5452675;26;19991;-78
2024/04/15 20:31:10;;;;;;;16.25;7.95;;;21.50;58.20;;;;;;5451852;26;20434;-78
2024/04/15 20:33:36;;;;;;;19.33;8.55;;;21.50;58.30;;;;;;5420366;26;19994;-78
2024/04/15 20:36:02;;;;;;;14.13;8.32;;;21.40;58.40;;;;;;5452152;26;20007;-77
2024/04/15 20:38:27;;;;;;;21.20;8.93;;;21.40;58.30;;;;;;5451330;26;20380;-77
2024/04/15 20:40:53;;;;;;;13.07;8.18;;;21.40;58.50;;;;;;5452092;26;20007;-77
2024/04/15 20:43:19;;;;;;;17.08;8.50;;;21.30;58.60;;;;;;5452438;26;20010;-78
2024/04/15 20:45:48;;;;;;;16.63;8.02;;;21.30;58.70;;;;;;5452004;26;20001;-79
2024/04/15 20:48:13;;;;;;;18.70;8.77;;;21.30;59.10;;;;;;5420279;26;20067;-81
2024/04/15 20:50:39;;;;;;;17.90;9.15;;;21.20;59.00;;;;;;5452598;26;20334;-80
2024/04/15 20:53:05;;;;;;;16.95;9.40;;;21.10;59.20;;;;;;5451734;26;20009;-76
2024/04/15 20:55:31;;;;;;;17.30;9.05;;;21.10;59.40;;;;;;5451736;26;20014;-79
2024/04/15 20:57:57;;;;;;;17.67;10.48;;;21.10;59.70;;;;;;5448235;26;20034;-80
2024/04/15 21:00:23;;;;;;;20.20;10.32;;;21.00;60.00;;;;;;5450373;26;20018;-77
2024/04/15 21:02:50;;;;;;;16.33;10.52;;;21.00;60.20;;;;;;5449383;26;20377;-77
2024/04/15 21:05:16;;;;;;;21.30;15.25;;;21.00;60.40;;;;;;5419090;26;20450;-83
2024/04/15 21:07:42;;;;;;;25.55;12.38;;;21.00;60.80;;;;;;5451671;26;19991;-80
2024/04/15 21:10:08;;;;;;;17.95;11.23;;;21.00;61.10;;;;;;5418566;26;20294;-78
2024/04/15 21:12:35;;;;;;;15.85;10.35;;;20.90;61.40;;;;;;5419736;26;20010;-83
2024/04/15 21:15:01;;;;;;;19.13;10.20;;;20.90;61.30;;;;;;5425469;26;19991;-84
2024/04/15 21:17:27;;;;;;;16.70;10.13;;;20.80;61.30;;;;;;5418100;26;20031;-88
2024/04/15 21:19:53;;;;;;;21.63;11.27;;;20.80;61.40;;;;;;5417996;26;19999;-90
2024/04/15 21:22:19;;;;;;;15.90;10.75;;;20.80;61.40;;;;;;5418562;26;20010;-88
2024/04/15 21:24:44;;;;;;;15.75;10.02;;;20.80;61.40;;;;;;5418199;26;20432;-89
2024/04/15 21:27:10;;;;;;;18.17;10.45;;;20.70;61.20;;;;;;5424148;26;20068;-88
2024/04/15 21:29:38;;;;;;;17.67;10.80;;;20.70;61.40;;;;;;5435991;26;20084;-88
2024/04/15 21:32:04;;;;;;;14.40;10.50;;;20.60;61.20;;;;;;5445566;26;19987;-86
2024/04/15 21:34:29;;;;;;;14.23;10.18;;;20.50;61.20;;;;;;5451937;26;19991;-89
2024/04/15 21:36:55;;;;;;;17.58;10.40;;;20.50;61.40;;;;;;5452657;26;20014;-84
2024/04/15 21:39:21;;;;;;;19.58;11.88;;;20.40;62.00;;;;;;5452293;26;20088;-82
2024/04/15 21:41:46;;;;;;;17.40;11.40;;;20.40;61.50;;;;;;5448181;26;20006;-84
2024/04/15 21:44:12;;;;;;;16.55;11.15;;;20.30;61.70;;;;;;5436176;26;20531;-83
2024/04/15 21:46:38;;;;;;;16.88;11.73;;;20.30;61.70;;;;;;5452429;26;20512;-83
2024/04/15 21:49:03;;;;;;;18.83;13.18;;;20.30;61.80;;;;;;5420971;26;20470;-84
2024/04/15 21:51:29;;;;;;;20.70;11.30;;;20.30;61.90;;;;;;5451601;26;20075;-83
2024/04/15 21:53:56;;;;;;;17.33;11.15;;;20.30;62.10;;;;;;5451471;26;20068;-84
2024/04/15 21:56:22;;;;;;;15.98;10.88;;;20.30;62.30;;;;;;5451447;26;19995;-84
2024/04/15 21:58:47;;;;;;;16.67;10.65;;;20.20;62.10;;;;;;5468663;26;19998;-83
2024/04/15 22:01:13;;;;;;;14.35;10.43;;;20.20;62.50;;;;;;5486863;26;20429;-85
2024/04/15 22:03:39;;;;;;;15.30;10.68;;;20.20;62.70;;;;;;5453396;26;19991;-83
2024/04/15 22:06:05;;;;;;;18.00;10.88;;;20.20;62.90;;;;;;5450590;26;19999;-83
2024/04/15 22:08:31;;;;;;;20.83;11.00;;;20.20;63.60;;;;;;5450773;26;20447;-82
2024/04/15 22:10:57;;;;;;;22.00;10.75;;;20.20;63.20;;;;;;5451699;26;20092;-84
2024/04/15 22:13:23;;;;;;;18.95;11.48;;;20.20;63.30;;;;;;5420472;26;19991;-84
2024/04/15 22:15:49;;;;;;;22.55;13.20;;;20.20;63.40;;;;;;5456256;26;20354;-82
2024/04/15 22:18:15;;;;;;;16.73;11.40;;;20.20;63.50;;;;;;5458611;26;19995;-84
2024/04/15 22:20:41;;;;;;;19.20;12.40;;;20.20;63.60;;;;;;5451971;26;19991;-84
2024/04/15 22:23:06;;;;;;;18.85;10.90;;;20.20;63.80;;;;;;5453102;26;20118;-84
2024/04/15 22:25:32;;;;;;;15.40;10.95;;;20.10;63.80;;;;;;5454441;26;19999;-83
2024/04/15 22:27:59;;;;;;;16.23;11.68;;;20.10;63.90;;;;;;5454459;26;20338;-84
2024/04/15 22:30:25;;;;;;;17.75;11.48;;;20.10;64.00;;;;;;5454518;26;20005;-82
2024/04/15 22:32:51;;;;;;;18.60;11.35;;;20.10;64.30;;;;;;5454976;26;19994;-84
2024/04/15 22:35:17;;;;;;;15.93;11.02;;;20.10;64.20;;;;;;5422535;26;20438;-84
2024/04/15 22:37:43;;;;;;;16.45;11.60;;;20.10;64.40;;;;;;5454357;26;19998;-82
2024/04/15 22:40:09;;;;;;;20.60;12.80;;;20.10;64.40;;;;;;5454423;26;19995;-82
2024/04/15 22:42:34;;;;;;;22.75;13.10;;;20.00;64.70;;;;;;5453942;26;19999;-83
2024/04/15 22:45:00;;;;;;;18.88;12.30;;;20.00;64.80;;;;;;5454033;26;20447;-84
2024/04/15 22:47:25;;;;;;;19.77;12.85;;;19.90;65.10;;;;;;5421604;26;20007;-84
2024/04/15 22:49:51;;;;;;;18.23;12.48;;;19.90;65.20;;;;;;5439403;26;20018;-84
